sensor_id;sensor_type;location;lat;lon;timestamp;P1;durP1;ratioP1;P2;durP2;ratioP2
14890;SDS011;7537;48.014;11.590;2022-08-19T00:03:32;0.06;;;0.36;;
14890;SDS011;7537;48.014;11.590;2022-08-19T00:08:59;5.07;;;3.96;;
14890;SDS011;7537;48.014;11.590;2022-08-19T00:14:27;4.08;;;4.27;;
14890;SDS011;7537;48.014;11.590;2022-08-19T00:19:54;7.85;;;4.23;;
14890;SDS011;7537;48.014;11.590;2022-08-19T00:25:23;3.84;;;4.07;;
14890;SDS011;7537;48.014;11.590;2022-08-19T00:30:50;3.18;;;3.34;;
14890;SDS011;7537;48.014;11.590;2022-08-19T00:36:18;3.86;;;4.10;;
14890;SDS011;7537;48.014;11.590;2022-08-19T00:41:45;3.50;;;3.64;;
14890;SDS011;7537;48.014;11.590;2022-08-19T00:47:16;3.25;;;3.43;;
14890;SDS011;7537;48.014;11.590;2022-08-19T00:52:45;3.33;;;3.49;;
14890;SDS011;7537;48.014;11.590;2022-08-19T00:58:15;3.77;;;4.00;;
14890;SDS011;7537;48.014;11.590;2022-08-19T01:03:43;2.88;;;2.94;;
14890;SDS011;7537;48.014;11.590;2022-08-19T01:09:11;3.06;;;3.25;;
14890;SDS011;7537;48.014;11.590;2022-08-19T01:14:39;3.57;;;3.61;;
14890;SDS011;7537;48.014;11.590;2022-08-19T01:20:08;4.34;;;4.38;;
14890;SDS011;7537;48.014;11.590;2022-08-19T01:25:39;4.04;;;4.16;;
14890;SDS011;7537;48.014;11.590;2022-08-19T01:31:10;3.81;;;3.90;;
14890;SDS011;7537;48.014;11.590;2022-08-19T01:36:39;3.95;;;4.07;;
14890;SDS011;7537;48.014;11.590;2022-08-19T01:42:07;3.17;;;3.44;;
14890;SDS011;7537;48.014;11.590;2022-08-19T01:47:38;0.11;;;0.32;;
14890;SDS011;7537;48.014;11.590;2022-08-19T01:53:07;1.51;;;1.57;;
14890;SDS011;7537;48.014;11.590;2022-08-19T01:58:38;1.29;;;0.63;;
14890;SDS011;7537;48.014;11.590;2022-08-19T02:04:07;0.77;;;0.76;;
14890;SDS011;7537;48.014;11.590;2022-08-19T02:09:35;0.11;;;0.18;;
14890;SDS011;7537;48.014;11.590;2022-08-19T02:15:03;0.60;;;0.69;;
14890;SDS011;7537;48.014;11.590;2022-08-19T02:20:30;0.03;;;0.06;;
14890;SDS011;7537;48.014;11.590;2022-08-19T02:25:58;0.16;;;0.20;;
14890;SDS011;7537;48.014;11.590;2022-08-19T02:31:25;0.09;;;0.14;;
14890;SDS011;7537;48.014;11.590;2022-08-19T02:36:54;2.08;;;1.98;;
14890;SDS011;7537;48.014;11.590;2022-08-19T02:42:21;0.00;;;0.17;;
14890;SDS011;7537;48.014;11.590;2022-08-19T02:47:52;0.22;;;0.26;;
14890;SDS011;7537;48.014;11.590;2022-08-19T02:53:22;0.82;;;0.77;;
14890;SDS011;7537;48.014;11.590;2022-08-19T02:58:50;0.67;;;0.76;;
14890;SDS011;7537;48.014;11.590;2022-08-19T03:04:35;0.16;;;0.08;;
14890;SDS011;7537;48.014;11.590;2022-08-19T03:10:05;0.19;;;0.21;;
14890;SDS011;7537;48.014;11.590;2022-08-19T03:15:32;0.21;;;0.25;;
14890;SDS011;7537;48.014;11.590;2022-08-19T03:21:00;0.72;;;0.76;;
14890;SDS011;7537;48.014;11.590;2022-08-19T03:26:27;1.26;;;1.03;;
14890;SDS011;7537;48.014;11.590;2022-08-19T03:31:55;0.00;;;0.03;;
14890;SDS011;7537;48.014;11.590;2022-08-19T03:37:22;0.00;;;0.00;;
14890;SDS011;7537;48.014;11.590;2022-08-19T03:42:51;2.49;;;0.68;;
14890;SDS011;7537;48.014;11.590;2022-08-19T03:48:22;0.55;;;0.58;;
14890;SDS011;7537;48.014;11.590;2022-08-19T03:53:49;0.00;;;0.05;;
14890;SDS011;7537;48.014;11.590;2022-08-19T03:59:17;0.00;;;0.00;;
14890;SDS011;7537;48.014;11.590;2022-08-19T04:04:45;0.00;;;0.00;;
14890;SDS011;7537;48.014;11.590;2022-08-19T04:10:12;0.00;;;0.00;;
14890;SDS011;7537;48.014;11.590;2022-08-19T04:15:41;0.00;;;0.00;;
14890;SDS011;7537;48.014;11.590;2022-08-19T04:21:14;0.00;;;0.00;;
14890;SDS011;7537;48.014;11.590;2022-08-19T04:26:42;0.00;;;0.01;;
14890;SDS011;7537;48.014;11.590;2022-08-19T04:32:09;1.04;;;1.08;;
14890;SDS011;7537;48.014;11.590;2022-08-19T04:37:36;0.00;;;0.03;;
14890;SDS011;7537;48.014;11.590;2022-08-19T04:43:05;0.00;;;0.00;;
14890;SDS011;7537;48.014;11.590;2022-08-19T04:48:37;0.00;;;0.00;;
14890;SDS011;7537;48.014;11.590;2022-08-19T04:54:05;0.94;;;0.91;;
14890;SDS011;7537;48.014;11.590;2022-08-19T04:59:33;3.24;;;3.36;;
14890;SDS011;7537;48.014;11.590;2022-08-19T05:05:00;2.74;;;2.87;;
14890;SDS011;7537;48.014;11.590;2022-08-19T05:10:28;1.66;;;1.77;;
14890;SDS011;7537;48.014;11.590;2022-08-19T05:15:56;3.66;;;2.76;;
14890;SDS011;7537;48.014;11.590;2022-08-19T05:21:25;2.92;;;3.08;;
14890;SDS011;7537;48.014;11.590;2022-08-19T05:26:53;3.07;;;2.93;;
14890;SDS011;7537;48.014;11.590;2022-08-19T05:32:21;0.95;;;1.11;;
14890;SDS011;7537;48.014;11.590;2022-08-19T05:37:48;0.08;;;0.11;;
14890;SDS011;7537;48.014;11.590;2022-08-19T05:43:15;0.00;;;0.01;;
14890;SDS011;7537;48.014;11.590;2022-08-19T05:48:51;0.36;;;0.41;;
14890;SDS011;7537;48.014;11.590;2022-08-19T05:54:20;0.00;;;0.03;;
14890;SDS011;7537;48.014;11.590;2022-08-19T05:59:47;0.00;;;0.00;;
14890;SDS011;7537;48.014;11.590;2022-08-19T06:05:14;0.00;;;0.00;;
14890;SDS011;7537;48.014;11.590;2022-08-19T06:10:42;0.00;;;0.00;;
14890;SDS011;7537;48.014;11.590;2022-08-19T06:16:09;0.00;;;0.00;;
14890;SDS011;7537;48.014;11.590;2022-08-19T06:21:38;1.22;;;1.32;;
14890;SDS011;7537;48.014;11.590;2022-08-19T06:27:07;1.65;;;0.59;;
14890;SDS011;7537;48.014;11.590;2022-08-19T06:32:34;2.51;;;2.49;;
14890;SDS011;7537;48.014;11.590;2022-08-19T06:38:02;4.23;;;3.83;;
14890;SDS011;7537;48.014;11.590;2022-08-19T06:43:29;3.19;;;3.35;;
14890;SDS011;7537;48.014;11.590;2022-08-19T06:49:00;3.62;;;3.74;;
14890;SDS011;7537;48.014;11.590;2022-08-19T06:54:27;3.86;;;3.98;;
14890;SDS011;7537;48.014;11.590;2022-08-19T06:59:56;5.84;;;4.86;;
14890;SDS011;7537;48.014;11.590;2022-08-19T07:05:24;5.47;;;5.29;;
14890;SDS011;7537;48.014;11.590;2022-08-19T07:10:51;9.26;;;7.75;;
14890;SDS011;7537;48.014;11.590;2022-08-19T07:17:51;7.10;;;7.05;;
14890;SDS011;7537;48.014;11.590;2022-08-19T07:23:19;7.16;;;7.30;;
14890;SDS011;7537;48.014;11.590;2022-08-19T07:28:46;9.56;;;9.59;;
14890;SDS011;7537;48.014;11.590;2022-08-19T07:34:16;1.99;;;2.44;;
14890;SDS011;7537;48.014;11.590;2022-08-19T07:39:43;10.03;;;9.70;;
14890;SDS011;7537;48.014;11.590;2022-08-19T07:45:11;12.99;;;12.39;;
14890;SDS011;7537;48.014;11.590;2022-08-19T07:50:38;9.86;;;7.86;;
14890;SDS011;7537;48.014;11.590;2022-08-19T07:56:06;9.19;;;8.52;;
14890;SDS011;7537;48.014;11.590;2022-08-19T08:01:33;12.58;;;12.51;;
14890;SDS011;7537;48.014;11.590;2022-08-19T08:07:02;12.58;;;12.61;;
14890;SDS011;7537;48.014;11.590;2022-08-19T08:12:31;12.86;;;12.95;;
14890;SDS011;7537;48.014;11.590;2022-08-19T08:19:04;12.36;;;12.19;;
14890;SDS011;7537;48.014;11.590;2022-08-19T08:24:31;13.23;;;12.18;;
14890;SDS011;7537;48.014;11.590;2022-08-19T08:30:10;9.23;;;9.02;;
14890;SDS011;7537;48.014;11.590;2022-08-19T08:35:39;3.28;;;3.39;;
14890;SDS011;7537;48.014;11.590;2022-08-19T08:41:11;3.14;;;3.29;;
14890;SDS011;7537;48.014;11.590;2022-08-19T08:46:40;10.66;;;10.41;;
14890;SDS011;7537;48.014;11.590;2022-08-19T08:52:11;0.24;;;0.90;;
14890;SDS011;7537;48.014;11.590;2022-08-19T08:57:42;10.76;;;9.41;;
14890;SDS011;7537;48.014;11.590;2022-08-19T09:03:13;5.71;;;5.76;;
14890;SDS011;7537;48.014;11.590;2022-08-19T09:08:45;10.04;;;10.15;;
14890;SDS011;7537;48.014;11.590;2022-08-19T09:14:18;8.88;;;9.01;;
14890;SDS011;7537;48.014;11.590;2022-08-19T09:19:50;9.86;;;9.92;;
14890;SDS011;7537;48.014;11.590;2022-08-19T09:25:18;7.25;;;6.76;;
14890;SDS011;7537;48.014;11.590;2022-08-19T09:30:49;7.62;;;5.37;;
14890;SDS011;7537;48.014;11.590;2022-08-19T09:36:28;11.76;;;11.41;;
14890;SDS011;7537;48.014;11.590;2022-08-19T09:41:56;9.91;;;9.77;;
14890;SDS011;7537;48.014;11.590;2022-08-19T09:48:11;0.26;;;0.85;;
14890;SDS011;7537;48.014;11.590;2022-08-19T09:54:54;1.48;;;1.54;;
14890;SDS011;7537;48.014;11.590;2022-08-19T10:01:20;2.66;;;2.58;;
14890;SDS011;7537;48.014;11.590;2022-08-19T10:07:57;12.75;;;12.27;;
14890;SDS011;7537;48.014;11.590;2022-08-19T10:14:45;2.48;;;1.70;;
14890;SDS011;7537;48.014;11.590;2022-08-19T10:20:14;4.84;;;4.50;;
14890;SDS011;7537;48.014;11.590;2022-08-19T10:25:41;0.00;;;0.24;;
14890;SDS011;7537;48.014;11.590;2022-08-19T10:31:10;1.39;;;1.41;;
14890;SDS011;7537;48.014;11.590;2022-08-19T10:36:38;4.21;;;1.61;;
14890;SDS011;7537;48.014;11.590;2022-08-19T10:42:06;0.05;;;0.10;;
14890;SDS011;7537;48.014;11.590;2022-08-19T10:47:34;2.16;;;1.85;;
14890;SDS011;7537;48.014;11.590;2022-08-19T10:53:04;5.29;;;5.21;;
14890;SDS011;7537;48.014;11.590;2022-08-19T11:00:34;6.83;;;6.94;;
14890;SDS011;7537;48.014;11.590;2022-08-19T11:06:36;6.29;;;6.49;;
14890;SDS011;7537;48.014;11.590;2022-08-19T11:12:04;6.69;;;6.86;;
14890;SDS011;7537;48.014;11.590;2022-08-19T11:17:32;6.70;;;6.12;;
14890;SDS011;7537;48.014;11.590;2022-08-19T11:22:59;4.72;;;4.83;;
14890;SDS011;7537;48.014;11.590;2022-08-19T11:28:27;4.98;;;5.13;;
14890;SDS011;7537;48.014;11.590;2022-08-19T11:33:56;4.41;;;4.59;;
14890;SDS011;7537;48.014;11.590;2022-08-19T11:39:24;4.47;;;4.67;;
14890;SDS011;7537;48.014;11.590;2022-08-19T11:44:53;4.32;;;4.49;;
14890;SDS011;7537;48.014;11.590;2022-08-19T11:52:34;4.42;;;4.68;;
14890;SDS011;7537;48.014;11.590;2022-08-19T11:58:15;3.79;;;3.98;;
14890;SDS011;7537;48.014;11.590;2022-08-19T12:05:33;3.39;;;3.62;;
14890;SDS011;7537;48.014;11.590;2022-08-19T12:11:47;3.66;;;3.83;;
14890;SDS011;7537;48.014;11.590;2022-08-19T12:18:42;7.32;;;7.21;;
14890;SDS011;7537;48.014;11.590;2022-08-19T12:25:05;9.26;;;9.23;;
14890;SDS011;7537;48.014;11.590;2022-08-19T12:31:36;8.57;;;8.60;;
14890;SDS011;7537;48.014;11.590;2022-08-19T12:37:04;8.30;;;8.37;;
14890;SDS011;7537;48.014;11.590;2022-08-19T12:44:04;9.04;;;8.93;;
14890;SDS011;7537;48.014;11.590;2022-08-19T12:49:34;8.97;;;6.78;;
14890;SDS011;7537;48.014;11.590;2022-08-19T12:55:01;4.41;;;4.77;;
14890;SDS011;7537;48.014;11.590;2022-08-19T13:02:34;3.98;;;4.24;;
14890;SDS011;7537;48.014;11.590;2022-08-19T13:13:53;2.67;;;2.87;;
14890;SDS011;7537;48.014;11.590;2022-08-19T13:19:25;1.13;;;1.35;;
14890;SDS011;7537;48.014;11.590;2022-08-19T13:24:54;1.49;;;1.60;;
14890;SDS011;7537;48.014;11.590;2022-08-19T13:30:53;0.79;;;0.92;;
14890;SDS011;7537;48.014;11.590;2022-08-19T13:36:20;1.19;;;1.29;;
14890;SDS011;7537;48.014;11.590;2022-08-19T13:41:48;1.18;;;1.33;;
14890;SDS011;7537;48.014;11.590;2022-08-19T13:47:59;1.06;;;1.19;;
14890;SDS011;7537;48.014;11.590;2022-08-19T13:53:27;1.14;;;1.27;;
14890;SDS011;7537;48.014;11.590;2022-08-19T13:58:56;1.11;;;1.14;;
14890;SDS011;7537;48.014;11.590;2022-08-19T14:04:23;1.20;;;1.12;;
14890;SDS011;7537;48.014;11.590;2022-08-19T14:09:50;1.60;;;1.46;;
14890;SDS011;7537;48.014;11.590;2022-08-19T14:16:13;1.16;;;1.28;;
14890;SDS011;7537;48.014;11.590;2022-08-19T14:21:37;1.29;;;1.21;;
14890;SDS011;7537;48.014;11.590;2022-08-19T14:27:04;1.42;;;1.54;;
14890;SDS011;7537;48.014;11.590;2022-08-19T14:32:41;1.21;;;1.35;;
14890;SDS011;7537;48.014;11.590;2022-08-19T14:38:14;1.54;;;1.72;;
14890;SDS011;7537;48.014;11.590;2022-08-19T14:43:42;1.34;;;1.48;;
14890;SDS011;7537;48.014;11.590;2022-08-19T14:49:41;1.15;;;1.19;;
14890;SDS011;7537;48.014;11.590;2022-08-19T14:55:09;1.01;;;1.13;;
14890;SDS011;7537;48.014;11.590;2022-08-19T15:00:36;1.13;;;1.27;;
14890;SDS011;7537;48.014;11.590;2022-08-19T15:06:04;1.94;;;1.20;;
14890;SDS011;7537;48.014;11.590;2022-08-19T15:11:31;1.03;;;1.14;;
14890;SDS011;7537;48.014;11.590;2022-08-19T15:17:00;1.04;;;0.97;;
14890;SDS011;7537;48.014;11.590;2022-08-19T15:22:27;0.89;;;0.97;;
14890;SDS011;7537;48.014;11.590;2022-08-19T15:27:55;1.03;;;1.12;;
14890;SDS011;7537;48.014;11.590;2022-08-19T15:33:22;0.80;;;0.91;;
14890;SDS011;7537;48.014;11.590;2022-08-19T15:38:49;1.20;;;1.33;;
14890;SDS011;7537;48.014;11.590;2022-08-19T15:44:17;1.25;;;1.32;;
14890;SDS011;7537;48.014;11.590;2022-08-19T15:49:46;1.03;;;1.15;;
14890;SDS011;7537;48.014;11.590;2022-08-19T15:55:14;1.22;;;1.34;;
14890;SDS011;7537;48.014;11.590;2022-08-19T16:00:41;1.46;;;1.58;;
14890;SDS011;7537;48.014;11.590;2022-08-19T16:06:09;1.07;;;1.18;;
14890;SDS011;7537;48.014;11.590;2022-08-19T16:11:39;2.22;;;2.04;;
14890;SDS011;7537;48.014;11.590;2022-08-19T16:17:07;1.17;;;1.33;;
14890;SDS011;7537;48.014;11.590;2022-08-19T16:22:36;1.76;;;1.90;;
14890;SDS011;7537;48.014;11.590;2022-08-19T16:28:04;1.71;;;1.81;;
14890;SDS011;7537;48.014;11.590;2022-08-19T16:33:31;1.99;;;1.99;;
14890;SDS011;7537;48.014;11.590;2022-08-19T16:38:59;1.97;;;2.12;;
14890;SDS011;7537;48.014;11.590;2022-08-19T16:44:27;2.34;;;1.57;;
14890;SDS011;7537;48.014;11.590;2022-08-19T16:50:06;1.77;;;1.39;;
14890;SDS011;7537;48.014;11.590;2022-08-19T17:01:24;0.77;;;0.81;;
14890;SDS011;7537;48.014;11.590;2022-08-19T17:06:53;0.72;;;0.80;;
14890;SDS011;7537;48.014;11.590;2022-08-19T17:12:20;2.49;;;1.18;;
14890;SDS011;7537;48.014;11.590;2022-08-19T17:17:48;0.77;;;0.80;;
14890;SDS011;7537;48.014;11.590;2022-08-19T17:23:15;0.71;;;0.79;;
14890;SDS011;7537;48.014;11.590;2022-08-19T17:28:43;1.71;;;1.02;;
14890;SDS011;7537;48.014;11.590;2022-08-19T17:34:10;0.96;;;1.04;;
14890;SDS011;7537;48.014;11.590;2022-08-19T17:39:38;0.82;;;0.91;;
14890;SDS011;7537;48.014;11.590;2022-08-19T17:45:07;0.81;;;0.90;;
14890;SDS011;7537;48.014;11.590;2022-08-19T17:50:35;1.09;;;1.19;;
14890;SDS011;7537;48.014;11.590;2022-08-19T17:56:03;0.97;;;0.94;;
14890;SDS011;7537;48.014;11.590;2022-08-19T18:01:38;0.94;;;1.04;;
14890;SDS011;7537;48.014;11.590;2022-08-19T18:07:06;0.60;;;0.69;;
14890;SDS011;7537;48.014;11.590;2022-08-19T18:12:34;0.89;;;0.99;;
14890;SDS011;7537;48.014;11.590;2022-08-19T18:18:02;0.97;;;1.02;;
14890;SDS011;7537;48.014;11.590;2022-08-19T18:23:29;1.34;;;1.41;;
14890;SDS011;7537;48.014;11.590;2022-08-19T18:29:01;3.88;;;2.09;;
14890;SDS011;7537;48.014;11.590;2022-08-19T18:34:29;3.95;;;2.28;;
14890;SDS011;7537;48.014;11.590;2022-08-19T18:39:56;1.67;;;1.75;;
14890;SDS011;7537;48.014;11.590;2022-08-19T18:45:29;1.28;;;1.44;;
14890;SDS011;7537;48.014;11.590;2022-08-19T18:50:57;2.04;;;2.15;;
14890;SDS011;7537;48.014;11.590;2022-08-19T18:56:25;2.58;;;2.57;;
14890;SDS011;7537;48.014;11.590;2022-08-19T19:02:16;3.25;;;3.17;;
14890;SDS011;7537;48.014;11.590;2022-08-19T19:07:35;3.74;;;3.77;;
14890;SDS011;7537;48.014;11.590;2022-08-19T19:13:04;7.54;;;5.06;;
14890;SDS011;7537;48.014;11.590;2022-08-19T19:18:32;7.06;;;6.98;;
14890;SDS011;7537;48.014;11.590;2022-08-19T19:24:00;7.94;;;8.11;;
14890;SDS011;7537;48.014;11.590;2022-08-19T19:31:10;9.76;;;9.91;;
14890;SDS011;7537;48.014;11.590;2022-08-19T19:36:38;11.62;;;11.01;;
14890;SDS011;7537;48.014;11.590;2022-08-19T19:42:06;11.07;;;11.16;;
14890;SDS011;7537;48.014;11.590;2022-08-19T19:47:33;11.39;;;11.26;;
14890;SDS011;7537;48.014;11.590;2022-08-19T19:53:22;11.08;;;11.26;;
14890;SDS011;7537;48.014;11.590;2022-08-19T19:58:51;10.26;;;10.36;;
14890;SDS011;7537;48.014;11.590;2022-08-19T20:04:18;9.91;;;10.16;;
14890;SDS011;7537;48.014;11.590;2022-08-19T20:09:45;10.57;;;10.81;;
14890;SDS011;7537;48.014;11.590;2022-08-19T20:15:13;10.75;;;10.78;;
14890;SDS011;7537;48.014;11.590;2022-08-19T20:20:41;10.39;;;10.47;;
14890;SDS011;7537;48.014;11.590;2022-08-19T20:26:09;11.56;;;11.73;;
14890;SDS011;7537;48.014;11.590;2022-08-19T20:31:36;12.16;;;11.54;;
14890;SDS011;7537;48.014;11.590;2022-08-19T20:37:05;9.87;;;10.11;;
14890;SDS011;7537;48.014;11.590;2022-08-19T20:47:50;12.74;;;12.00;;
14890;SDS011;7537;48.014;11.590;2022-08-19T20:53:18;10.12;;;9.96;;
14890;SDS011;7537;48.014;11.590;2022-08-19T20:58:46;11.22;;;10.27;;
14890;SDS011;7537;48.014;11.590;2022-08-19T21:04:13;9.96;;;10.25;;
14890;SDS011;7537;48.014;11.590;2022-08-19T21:09:42;11.01;;;11.24;;
14890;SDS011;7537;48.014;11.590;2022-08-19T21:15:10;11.16;;;11.39;;
14890;SDS011;7537;48.014;11.590;2022-08-19T21:20:39;11.01;;;11.11;;
14890;SDS011;7537;48.014;11.590;2022-08-19T21:31:16;12.95;;;12.47;;
14890;SDS011;7537;48.014;11.590;2022-08-19T21:36:44;12.24;;;11.25;;
14890;SDS011;7537;48.014;11.590;2022-08-19T21:42:12;10.47;;;10.66;;
14890;SDS011;7537;48.014;11.590;2022-08-19T21:47:40;10.76;;;10.93;;
14890;SDS011;7537;48.014;11.590;2022-08-19T21:53:09;16.84;;;11.81;;
14890;SDS011;7537;48.014;11.590;2022-08-19T21:58:36;14.49;;;13.37;;
14890;SDS011;7537;48.014;11.590;2022-08-19T22:04:57;13.59;;;13.60;;
14890;SDS011;7537;48.014;11.590;2022-08-19T22:10:25;12.22;;;12.38;;
14890;SDS011;7537;48.014;11.590;2022-08-19T22:15:53;1.81;;;2.26;;
14890;SDS011;7537;48.014;11.590;2022-08-19T22:21:41;4.04;;;1.91;;
14890;SDS011;7537;48.014;11.590;2022-08-19T22:27:09;10.42;;;10.30;;
14890;SDS011;7537;48.014;11.590;2022-08-19T22:32:37;2.05;;;2.64;;
14890;SDS011;7537;48.014;11.590;2022-08-19T22:38:05;3.46;;;3.36;;
14890;SDS011;7537;48.014;11.590;2022-08-19T22:43:32;1.31;;;1.53;;
14890;SDS011;7537;48.014;11.590;2022-08-19T22:49:00;6.09;;;5.46;;
14890;SDS011;7537;48.014;11.590;2022-08-19T22:54:27;13.64;;;13.53;;
14890;SDS011;7537;48.014;11.590;2022-08-19T23:02:09;1.21;;;1.22;;
14890;SDS011;7537;48.014;11.590;2022-08-19T23:07:38;6.97;;;6.02;;
14890;SDS011;7537;48.014;11.590;2022-08-19T23:13:06;4.29;;;2.00;;
14890;SDS011;7537;48.014;11.590;2022-08-19T23:19:41;3.87;;;3.86;;
14890;SDS011;7537;48.014;11.590;2022-08-19T23:25:10;6.11;;;5.42;;
14890;SDS011;7537;48.014;11.590;2022-08-19T23:30:39;6.04;;;5.19;;
14890;SDS011;7537;48.014;11.590;2022-08-19T23:36:08;4.04;;;3.81;;
14890;SDS011;7537;48.014;11.590;2022-08-19T23:41:37;9.64;;;9.53;;
14890;SDS011;7537;48.014;11.590;2022-08-19T23:47:05;11.14;;;11.48;;
14890;SDS011;7537;48.014;11.590;2022-08-19T23:52:32;0.88;;;1.50;;
14890;SDS011;7537;48.014;11.590;2022-08-19T23:58:00;2.64;;;2.61;;
